Time;durP1;ratioP1;P1;durP2;ratioP2;P2;SDS_P1;SDS_P2;PMS_P1;PMS_P2;Temp;Humidity;BMP_temperature;BMP_pressure;BME280_temperature;BME280_humidity;BME280_pressure;Samples;Min_cycle;Max_cycle;Signal;HPM_P1;HPM_P2
2023/01/17 00:01:14;;;;;;;7.30;6.15;;;;;;;2.67;100.00;98321.03;5094982;28;20019;-61
2023/01/17 00:12:04;;;;;;;8.85;5.43;;;;;;;2.55;100.00;98321.94;5115200;28;20035;-62
2023/01/17 00:14:29;;;;;;;;;;;;;;;2.68;100.00;98337.66;5115383;28;20094;-62
2023/01/17 00:16:59;;;;;;;6.55;5.68;;;;;;;2.54;100.00;98343.03;5112926;28;20033;-62
2023/01/17 01:34:04;;;;;;;6.03;5.53;;;;;;;2.07;99.95;98444.19;5092927;28;20050;-62
2023/01/17 01:36:29;;;;;;;5.35;5.10;;;;;;;1.98;100.00;98449.09;5092580;28;20392;-62
2023/01/17 01:38:55;;;;;;;6.07;5.68;;;;;;;1.97;100.00;98457.91;5092125;28;20126;-62
2023/01/17 01:41:23;;;;;;;5.90;5.60;;;;;;;1.90;100.00;98459.22;5074365;28;20085;-62
2023/01/17 01:43:52;;;;;;;5.72;5.38;;;;;;;1.78;100.00;98463.50;5092357;28;20462;-61
2023/01/17 01:46:25;;;;;;;6.43;6.03;;;;;;;1.83;100.00;98465.84;5072604;28;20048;-62
2023/01/17 01:48:57;;;;;;;5.78;5.47;;;;;;;1.79;100.00;98475.69;5072366;28;20433;-62
2023/01/17 01:51:28;;;;;;;6.47;5.97;;;;;;;1.80;100.00;98485.22;5073015;28;20103;-61
2023/01/17 01:54:04;;;;;;;6.10;5.70;;;;;;;1.78;100.00;98486.25;5073550;28;20032;-62
2023/01/17 01:56:33;;;;;;;6.40;5.90;;;;;;;1.75;100.00;98489.06;5092539;28;20024;-62
2023/01/17 01:59:01;;;;;;;6.27;5.80;;;;;;;1.68;100.00;98482.56;5092422;28;20055;-63
2023/01/17 02:01:28;;;;;;;6.10;5.70;;;;;;;1.76;100.00;98498.59;5090486;28;20024;-63
2023/01/17 02:03:54;;;;;;;6.10;5.60;;;;;;;1.78;100.00;98500.19;5092618;28;20110;-62
2023/01/17 02:06:28;;;;;;;6.20;5.72;;;;;;;1.83;100.00;98506.94;5092072;28;20563;-62
2023/01/17 02:08:57;;;;;;;6.15;5.65;;;;;;;1.89;100.00;98512.59;5091833;28;20489;-62
2023/01/17 02:11:23;;;;;;;7.70;6.30;;;;;;;1.85;100.00;98505.84;5092261;28;20028;-62
2023/01/17 02:13:48;;;;;;;6.40;5.95;;;;;;;1.89;100.00;98509.16;5093281;28;20040;-62
2023/01/17 02:16:17;;;;;;;6.53;5.93;;;;;;;1.87;100.00;98514.47;5090992;28;20474;-61
2023/01/17 02:19:03;;;;;;;7.90;6.07;;;;;;;2.11;100.00;98526.91;5100129;28;20484;-61
2023/01/17 02:21:38;;;;;;;7.47;6.10;;;;;;;1.81;100.00;98531.44;5110314;28;20015;-61
2023/01/17 02:24:31;;;;;;;5.93;5.40;;;;;;;1.80;100.00;98524.53;5111591;28;20024;-61
2023/01/17 02:27:06;;;;;;;8.33;5.40;;;;;;;1.77;100.00;98526.50;5112212;28;20023;-62
2023/01/17 02:30:05;;;;;;;7.20;5.90;;;;;;;1.79;100.00;98542.94;5093988;28;20408;-62
2023/01/17 02:32:36;;;;;;;7.78;5.63;;;;;;;1.76;100.00;98545.78;5093418;28;20046;-62
2023/01/17 02:35:15;;;;;;;6.67;5.97;;;;;;;1.72;100.00;98546.91;5109766;28;20309;-62
2023/01/17 02:38:02;;;;;;;6.53;5.40;;;;;;;1.71;100.00;98543.47;5091930;28;20031;-61
2023/01/17 02:40:36;;;;;;;5.93;5.43;;;;;;;1.54;100.00;98531.44;5091340;28;20022;-62
2023/01/17 02:43:08;;;;;;;5.50;5.03;;;;;;;1.54;100.00;98523.56;5104841;28;20042;-61
2023/01/17 02:45:33;;;;;;;5.63;5.13;;;;;;;1.54;99.24;98492.13;5111982;28;20103;-61
2023/01/17 02:47:59;;;;;;;5.85;5.38;;;;;;;1.49;99.80;98506.47;5076739;28;20118;-62
2023/01/17 02:50:35;;;;;;;5.97;5.55;;;;;;;1.49;99.68;98514.31;5093131;28;20027;-62
2023/01/17 02:53:20;;;;;;;5.70;5.30;;;;;;;1.44;98.82;98524.25;5089721;28;20114;-62
2023/01/17 02:56:10;;;;;;;5.20;4.80;;;;;;;1.39;98.63;98526.34;5091544;28;20044;-62
2023/01/17 02:58:50;;;;;;;5.45;4.97;;;;;;;1.41;98.98;98534.91;5091805;28;20111;-62
2023/01/17 03:01:24;;;;;;;9.10;5.43;;;;;;;1.39;99.26;98539.44;5091879;28;20485;-62
2023/01/17 03:04:05;;;;;;;5.23;4.77;;;;;;;1.39;99.25;98550.75;5089747;28;20119;-62
2023/01/17 03:06:42;;;;;;;5.27;4.77;;;;;;;1.36;99.53;98559.63;5091791;28;20039;-62
2023/01/17 03:09:09;;;;;;;5.40;4.90;;;;;;;1.31;99.68;98556.44;5091500;28;20055;-62
2023/01/17 03:11:35;;;;;;;5.77;5.27;;;;;;;1.25;99.28;98563.84;5091880;28;20387;-62
2023/01/17 03:14:01;;;;;;;6.23;5.27;;;;;;;1.14;99.29;98567.09;5096379;28;20035;-62
2023/01/17 03:16:31;;;;;;;5.37;4.97;;;;;;;1.11;99.35;98570.75;5095560;28;20425;-62
2023/01/17 03:18:59;;;;;;;5.95;5.55;;;;;;;1.08;100.00;98570.09;5093991;28;20608;-62
2023/01/17 03:21:27;;;;;;;6.50;5.30;;;;;;;1.04;99.77;98569.47;5094145;28;20024;-63
2023/01/17 03:23:52;;;;;;;6.30;5.80;;;;;;;0.99;99.61;98568.88;5096013;28;20090;-62
2023/01/17 03:26:19;;;;;;;5.70;5.17;;;;;;;1.01;100.00;98563.56;5093778;28;20043;-62
2023/01/17 03:28:44;;;;;;;6.30;5.80;;;;;;;1.00;100.00;98564.50;5093938;28;20020;-62
2023/01/17 03:31:13;;;;;;;6.20;5.60;;;;;;;0.96;100.00;98571.69;5077185;28;20506;-62
2023/01/17 03:33:41;;;;;;;7.77;5.17;;;;;;;0.98;100.00;98569.84;5103038;28;20470;-62
2023/01/17 03:36:07;;;;;;;6.67;5.43;;;;;;;0.92;100.00;98570.22;5115505;27;20076;-63
2023/01/17 03:38:33;;;;;;;7.70;5.67;;;;;;;0.92;100.00;98566.75;5113394;28;20489;-62
2023/01/17 03:40:59;;;;;;;5.90;5.47;;;;;;;0.95;100.00;98566.56;5113372;28;20024;-62
2023/01/17 03:43:24;;;;;;;5.50;4.97;;;;;;;0.96;100.00;98565.63;5105902;28;20045;-63
2023/01/17 03:46:01;;;;;;;6.17;5.57;;;;;;;0.93;100.00;98566.63;5088728;28;20038;-62
2023/01/17 03:48:30;;;;;;;6.10;5.60;;;;;;;0.93;100.00;98576.28;5109314;28;20102;-63
2023/01/17 03:50:56;;;;;;;9.45;6.43;;;;;;;0.87;100.00;98578.31;5096887;28;20031;-62
2023/01/17 03:53:22;;;;;;;6.37;5.73;;;;;;;0.91;100.00;98576.34;5081356;28;20032;-62
2023/01/17 03:55:49;;;;;;;6.67;6.07;;;;;;;0.91;100.00;98573.72;5078533;28;20056;-62
2023/01/17 03:58:15;;;;;;;7.30;6.60;;;;;;;0.89;100.00;98573.00;5074627;28;20055;-62
2023/01/17 04:00:40;;;;;;;7.50;7.00;;;;;;;0.82;100.00;98567.28;5102074;28;20464;-62
2023/01/17 04:03:06;;;;;;;8.23;7.40;;;;;;;0.85;100.00;98561.03;5084655;28;20028;-62
2023/01/17 04:05:31;;;;;;;8.60;7.90;;;;;;;0.81;100.00;98575.25;5076277;28;20035;-62
2023/01/17 04:07:57;;;;;;;8.00;7.20;;;;;;;0.84;100.00;98575.06;5073854;28;20506;-62
2023/01/17 04:10:22;;;;;;;9.87;7.47;;;;;;;0.81;100.00;98573.44;5059847;28;20038;-62
2023/01/17 04:12:50;;;;;;;7.93;7.23;;;;;;;0.86;100.00;98573.19;5114055;28;20046;-62
2023/01/17 04:15:16;;;;;;;8.07;7.27;;;;;;;0.81;100.00;98573.44;5075613;28;20032;-63
2023/01/17 04:17:45;;;;;;;8.93;6.90;;;;;;;0.83;100.00;98571.59;5090111;28;20538;-62
2023/01/17 04:20:28;;;;;;;8.30;7.43;;;;;;;0.84;100.00;98578.50;5114599;28;20080;-62
2023/01/17 04:22:53;;;;;;;8.30;7.60;;;;;;;0.84;100.00;98580.28;5113877;28;20036;-62
2023/01/17 04:25:19;;;;;;;7.90;7.27;;;;;;;0.75;100.00;98571.22;5111342;28;20043;-62
2023/01/17 04:27:45;;;;;;;7.17;6.47;;;;;;;0.76;100.00;98567.66;5108302;28;20028;-62
2023/01/17 04:30:11;;;;;;;7.80;6.90;;;;;;;0.73;100.00;98577.47;5113412;28;20024;-62
2023/01/17 04:32:37;;;;;;;8.17;7.00;;;;;;;0.74;100.00;98571.31;5113733;28;20382;-61
2023/01/17 04:35:03;;;;;;;7.13;6.50;;;;;;;0.65;100.00;98570.09;5093777;28;20039;-61
2023/01/17 04:37:29;;;;;;;6.93;6.33;;;;;;;0.67;100.00;98565.59;5086494;28;20043;-61
2023/01/17 04:39:55;;;;;;;8.40;7.00;;;;;;;0.66;100.00;98566.53;5107572;28;20035;-62
2023/01/17 04:42:22;;;;;;;8.83;6.93;;;;;;;0.62;100.00;98571.09;5095301;28;20409;-62
2023/01/17 04:44:48;;;;;;;7.97;7.03;;;;;;;0.65;100.00;98576.16;5075351;28;20058;-62
2023/01/17 04:47:13;;;;;;;7.30;6.70;;;;;;;0.68;100.00;98573.34;5080980;28;20115;-61
2023/01/17 04:49:39;;;;;;;7.80;7.17;;;;;;;0.63;100.00;98578.00;5110921;28;20038;-62
2023/01/17 04:52:05;;;;;;;7.97;7.20;;;;;;;0.64;100.00;98578.84;5093355;28;20490;-62
2023/01/17 04:54:30;;;;;;;8.23;7.37;;;;;;;0.67;100.00;98586.50;5112119;28;20491;-62
2023/01/17 04:56:56;;;;;;;9.30;8.30;;;;;;;0.66;100.00;98582.22;5085676;28;20071;-62
2023/01/17 04:59:22;;;;;;;9.83;7.60;;;;;;;0.66;100.00;98579.59;5078711;28;20759;-62
2023/01/17 05:01:48;;;;;;;10.73;9.83;;;;;;;0.63;100.00;98585.84;5095210;28;20035;-62
2023/01/17 05:04:15;;;;;;;10.57;9.57;;;;;;;0.57;100.00;98578.38;5094348;28;20557;-62
2023/01/17 05:06:40;;;;;;;11.23;10.17;;;;;;;0.62;100.00;98585.97;5112511;28;20103;-62
2023/01/17 05:09:06;;;;;;;11.60;10.30;;;;;;;0.61;100.00;98586.88;5059355;28;20163;-62
2023/01/17 05:11:32;;;;;;;14.17;12.13;;;;;;;0.58;100.00;98587.06;5110458;28;20067;-62
2023/01/17 05:13:57;;;;;;;14.23;12.83;;;;;;;0.63;100.00;98585.03;5103409;28;20039;-62
2023/01/17 05:16:23;;;;;;;14.43;13.10;;;;;;;0.55;100.00;98576.78;5113752;28;20024;-61
2023/01/17 05:18:52;;;;;;;16.17;14.47;;;;;;;0.66;100.00;98590.06;5094683;28;20048;-62
2023/01/17 05:21:19;;;;;;;15.57;13.02;;;;;;;0.59;100.00;98584.38;5111115;28;20063;-63
2023/01/17 05:23:47;;;;;;;18.27;14.80;;;;;;;0.62;100.00;98585.97;5111913;28;20452;-62
2023/01/17 05:26:13;;;;;;;15.83;13.87;;;;;;;0.59;100.00;98586.13;5094385;28;20036;-62
2023/01/17 05:28:39;;;;;;;15.63;14.03;;;;;;;0.56;100.00;98576.69;5109514;28;20028;-62
2023/01/17 05:31:07;;;;;;;16.03;14.30;;;;;;;0.55;100.00;98584.63;5092643;28;20031;-62
2023/01/17 05:33:34;;;;;;;15.03;13.40;;;;;;;0.54;100.00;98586.41;5095353;28;20031;-62
2023/01/17 05:36:00;;;;;;;15.13;13.70;;;;;;;0.56;100.00;98594.13;5111624;28;20019;-62
2023/01/17 05:38:25;;;;;;;15.03;13.53;;;;;;;0.49;100.00;98577.97;5094289;28;20504;-62
2023/01/17 05:40:51;;;;;;;14.70;13.23;;;;;;;0.57;100.00;98598.47;5094693;28;20046;-62
2023/01/17 05:43:17;;;;;;;17.63;13.07;;;;;;;0.55;100.00;98601.16;5094227;28;20111;-61
2023/01/17 05:45:42;;;;;;;13.87;12.60;;;;;;;0.54;100.00;98609.09;5111388;28;20098;-61
2023/01/17 05:48:08;;;;;;;12.60;11.40;;;;;;;0.54;100.00;98614.34;5112933;28;20035;-62
2023/01/17 05:50:36;;;;;;;13.80;11.43;;;;;;;0.50;100.00;98616.28;5110881;28;20382;-61
2023/01/17 05:53:07;;;;;;;12.37;11.10;;;;;;;0.49;100.00;98627.66;5094711;28;20024;-61
2023/01/17 05:55:38;;;;;;;12.63;11.37;;;;;;;0.44;100.00;98622.72;5111298;28;20077;-62
2023/01/17 05:58:05;;;;;;;16.00;12.70;;;;;;;0.47;100.00;98613.81;5091163;28;20044;-61
2023/01/17 06:00:31;;;;;;;14.37;12.97;;;;;;;0.46;100.00;98627.84;5107039;28;20019;-62
2023/01/17 06:03:00;;;;;;;15.93;13.67;;;;;;;0.47;100.00;98628.66;5112928;28;20043;-62
2023/01/17 06:05:27;;;;;;;17.93;14.97;;;;;;;0.39;100.00;98626.53;5112559;28;20047;-62
2023/01/17 06:07:53;;;;;;;17.97;15.50;;;;;;;0.32;100.00;98610.31;5111114;28;20080;-62
2023/01/17 06:10:21;;;;;;;17.43;15.67;;;;;;;0.35;100.00;98617.16;5077326;28;20023;-62
2023/01/17 06:12:49;;;;;;;22.17;16.47;;;;;;;0.35;100.00;98614.53;5112489;28;20019;-62
2023/01/17 06:15:17;;;;;;;19.77;16.77;;;;;;;0.29;100.00;98614.88;5094777;28;20119;-61
2023/01/17 06:17:43;;;;;;;19.57;16.60;;;;;;;0.22;100.00;98612.63;5093829;28;20022;-62
2023/01/17 06:20:10;;;;;;;19.23;15.67;;;;;;;0.21;100.00;98624.03;5112086;28;20034;-62
2023/01/17 06:22:36;;;;;;;24.23;16.77;;;;;;;0.19;100.00;98627.66;5112343;28;20378;-62
2023/01/17 06:25:01;;;;;;;17.77;15.57;;;;;;;0.19;100.00;98620.63;5093466;28;20035;-62
2023/01/17 06:27:27;;;;;;;18.20;15.73;;;;;;;0.21;100.00;98628.41;5110162;28;20482;-62
2023/01/17 06:29:53;;;;;;;18.73;16.00;;;;;;;0.16;100.00;98630.44;5089631;28;20040;-62
2023/01/17 06:32:18;;;;;;;21.73;15.97;;;;;;;0.11;100.00;98632.44;5088902;28;20031;-62
2023/01/17 06:34:44;;;;;;;18.57;16.60;;;;;;;0.12;100.00;98627.16;5107395;28;20487;-62
2023/01/17 06:37:12;;;;;;;22.57;16.53;;;;;;;0.08;100.00;98627.41;5093983;28;20479;-61
2023/01/17 06:39:37;;;;;;;20.77;16.20;;;;;;;0.09;100.00;98629.06;5108110;28;20023;-61
2023/01/17 06:42:03;;;;;;;18.07;16.20;;;;;;;0.04;100.00;98629.34;5098919;28;20023;-61
2023/01/17 06:44:29;;;;;;;21.73;16.53;;;;;;;-0.02;100.00;98630.53;5099353;28;20493;-61
2023/01/17 06:46:54;;;;;;;17.80;15.70;;;;;;;-0.04;100.00;98608.88;5087760;28;20024;-62
2023/01/17 06:49:20;;;;;;;17.83;15.97;;;;;;;-0.01;100.00;98628.75;5108095;28;20027;-61
2023/01/17 06:51:48;;;;;;;19.10;16.70;;;;;;;-0.03;100.00;98631.47;5087825;28;20448;-62
2023/01/17 06:54:14;;;;;;;18.57;16.57;;;;;;;-0.05;100.00;98635.09;5089894;28;20042;-61
2023/01/17 06:56:39;;;;;;;19.27;17.37;;;;;;;-0.08;100.00;98633.50;5065889;28;20020;-62
2023/01/17 06:59:05;;;;;;;19.23;17.13;;;;;;;-0.08;100.00;98630.03;5069376;28;20043;-62
2023/01/17 07:01:30;;;;;;;19.47;16.67;;;;;;;-0.07;100.00;98639.53;5093811;28;20027;-62
2023/01/17 07:03:56;;;;;;;19.40;17.37;;;;;;;-0.07;100.00;98636.94;5076647;28;20049;-62
2023/01/17 07:06:23;;;;;;;18.23;16.20;;;;;;;-0.12;100.00;98638.94;5112084;28;20359;-62
2023/01/17 07:08:49;;;;;;;21.03;16.97;;;;;;;-0.11;100.00;98633.66;5108785;28;20036;-62
2023/01/17 07:11:17;;;;;;;19.03;16.47;;;;;;;-0.14;100.00;98638.22;5091903;28;20537;-62
2023/01/17 07:13:45;;;;;;;18.40;16.27;;;;;;;-0.20;100.00;98621.09;5110765;28;20104;-62
2023/01/17 07:16:10;;;;;;;18.83;16.13;;;;;;;-0.19;100.00;98638.47;5111908;28;20024;-61
2023/01/17 07:18:36;;;;;;;19.83;17.77;;;;;;;-0.15;100.00;98633.91;5093368;28;20024;-61
2023/01/17 07:21:01;;;;;;;22.50;18.47;;;;;;;-0.20;100.00;98628.94;5076428;28;20512;-62
2023/01/17 07:23:26;;;;;;;20.73;16.90;;;;;;;-0.18;100.00;98634.91;5076193;28;20406;-62
2023/01/17 07:25:53;;;;;;;19.50;16.87;;;;;;;-0.20;100.00;98639.38;5090732;28;20034;-61
2023/01/17 07:28:18;;;;;;;19.67;17.27;;;;;;;-0.19;100.00;98643.69;5109970;28;20020;-62
2023/01/17 07:30:44;;;;;;;21.33;16.83;;;;;;;-0.15;100.00;98639.97;5110894;28;20043;-61
2023/01/17 07:33:10;;;;;;;20.17;17.50;;;;;;;-0.19;100.00;98645.44;5074487;28;20022;-62
2023/01/17 07:35:36;;;;;;;21.53;17.97;;;;;;;-0.22;100.00;98643.84;5097625;28;20230;-61
2023/01/17 07:38:04;;;;;;;22.07;17.20;;;;;;;-0.25;100.00;98650.06;5074544;28;20024;-62
2023/01/17 07:40:30;;;;;;;24.40;18.40;;;;;;;-0.24;100.00;98656.13;5100854;28;20020;-62
2023/01/17 07:43:02;;;;;;;22.80;17.60;;;;;;;-0.27;100.00;98649.31;5105741;28;20156;-62
2023/01/17 07:45:28;;;;;;;26.40;18.73;;;;;;;-0.28;100.00;98659.84;5111129;28;20115;-62
2023/01/17 07:47:56;;;;;;;26.93;18.87;;;;;;;-0.26;100.00;98656.25;5111011;28;20106;-62
2023/01/17 07:50:21;;;;;;;24.63;18.87;;;;;;;-0.26;100.00;98655.41;5111428;28;20035;-62
2023/01/17 07:52:50;;;;;;;23.77;18.47;;;;;;;-0.21;100.00;98655.97;5111178;28;20381;-62
2023/01/17 07:55:16;;;;;;;24.20;18.37;;;;;;;-0.25;100.00;98657.91;5111044;28;20040;-62
2023/01/17 07:57:41;;;;;;;22.33;18.53;;;;;;;-0.22;100.00;98650.84;5089768;28;20100;-62
2023/01/17 08:00:08;;;;;;;25.63;18.83;;;;;;;-0.18;100.00;98658.41;5092553;28;20031;-61
2023/01/17 08:02:33;;;;;;;26.63;20.90;;;;;;;-0.20;100.00;98649.84;5076672;28;20028;-62
2023/01/17 08:04:59;;;;;;;22.00;19.77;;;;;;;-0.13;100.00;98652.94;5094657;28;20145;-62
2023/01/17 08:07:25;;;;;;;25.93;20.67;;;;;;;-0.16;100.00;98647.91;5094350;28;20493;-62
2023/01/17 08:09:53;;;;;;;30.37;21.17;;;;;;;-0.18;100.00;98660.19;5094118;28;20024;-62
2023/01/17 08:12:19;;;;;;;24.47;20.53;;;;;;;-0.24;100.00;98666.59;5093522;28;20020;-62
2023/01/17 08:14:47;;;;;;;25.57;20.33;;;;;;;-0.18;100.00;98655.81;5094472;28;20044;-62
2023/01/17 08:17:15;;;;;;;24.23;19.27;;;;;;;-0.17;100.00;98660.13;5093555;28;20028;-61
2023/01/17 08:19:40;;;;;;;24.37;21.00;;;;;;;-0.17;100.00;98654.06;5111126;28;20073;-62
2023/01/17 08:22:06;;;;;;;26.80;21.63;;;;;;;-0.11;100.00;98654.56;5095906;28;20432;-62
2023/01/17 08:24:32;;;;;;;23.00;20.53;;;;;;;-0.08;100.00;98658.78;5113792;28;20497;-62
2023/01/17 08:26:57;;;;;;;25.00;22.40;;;;;;;-0.10;100.00;98666.69;5096437;28;20028;-62
2023/01/17 08:29:23;;;;;;;24.07;21.37;;;;;;;-0.04;100.00;98670.72;5095737;28;20020;-62
2023/01/17 08:31:52;;;;;;;25.17;22.53;;;;;;;-0.03;100.00;98664.56;5092469;28;20031;-61
2023/01/17 08:34:18;;;;;;;25.50;21.87;;;;;;;-0.10;100.00;98668.47;5107332;28;20031;-61
2023/01/17 08:36:44;;;;;;;27.27;21.90;;;;;;;-0.05;100.00;98667.28;5096124;28;20502;-62
2023/01/17 08:39:11;;;;;;;26.67;21.90;;;;;;;-0.12;100.00;98659.84;5095789;28;20035;-62
2023/01/17 08:41:37;;;;;;;27.87;22.80;;;;;;;-0.06;100.00;98680.41;5095668;28;20050;-62
2023/01/17 08:44:03;;;;;;;27.97;22.87;;;;;;;-0.04;100.00;98682.03;5092534;28;20499;-62
2023/01/17 08:46:28;;;;;;;26.60;22.20;;;;;;;-0.01;100.00;98683.63;5093919;28;20052;-62
2023/01/17 08:48:57;;;;;;;27.93;22.73;;;;;;;-0.05;100.00;98675.13;5092396;28;20036;-62
2023/01/17 08:51:25;;;;;;;26.07;23.27;;;;;;;-0.07;100.00;98663.91;5092533;28;20467;-62
2023/01/17 08:53:51;;;;;;;26.07;23.33;;;;;;;0.05;99.98;98677.22;5094371;28;20024;-62
2023/01/17 08:56:17;;;;;;;29.47;25.07;;;;;;;0.05;100.00;98680.69;5092035;28;20055;-61
2023/01/17 08:58:45;;;;;;;26.47;22.97;;;;;;;0.06;100.00;98679.78;5092413;28;20060;-61
2023/01/17 09:01:11;;;;;;;25.43;22.67;;;;;;;0.12;100.00;98681.16;5093833;28;20510;-61
2023/01/17 09:03:36;;;;;;;27.37;23.47;;;;;;;0.06;100.00;98665.84;5094407;28;20069;-61
2023/01/17 09:06:07;;;;;;;26.97;24.17;;;;;;;0.19;100.00;98683.38;5093445;28;20024;-62
2023/01/17 09:08:33;;;;;;;29.37;23.30;;;;;;;0.20;99.48;98676.38;5092943;28;20020;-62
2023/01/17 09:11:07;;;;;;;28.60;24.13;;;;;;;0.25;100.00;98686.56;5091942;28;20074;-62
2023/01/17 09:13:33;;;;;;;24.70;21.77;;;;;;;0.26;100.00;98683.88;5093097;28;20112;-62
2023/01/17 09:15:59;;;;;;;27.57;23.57;;;;;;;0.30;100.00;98689.78;5112523;28;20102;-62
2023/01/17 09:18:25;;;;;;;26.30;23.50;;;;;;;0.39;99.75;98686.66;5095266;28;20397;-62
2023/01/17 09:20:53;;;;;;;29.83;24.27;;;;;;;0.36;99.08;98674.59;5113340;28;20382;-62
2023/01/17 09:23:23;;;;;;;32.03;22.90;;;;;;;0.53;99.18;98685.84;5095502;28;20087;-62
2023/01/17 09:25:58;;;;;;;27.50;23.20;;;;;;;0.61;99.55;98689.72;5111869;28;20123;-61
2023/01/17 09:28:25;;;;;;;27.83;23.97;;;;;;;0.66;99.29;98684.22;5113261;28;20033;-62
2023/01/17 09:30:51;;;;;;;28.37;21.97;;;;;;;0.68;99.16;98695.47;5113153;28;20092;-61
2023/01/17 09:33:17;;;;;;;23.83;21.27;;;;;;;0.71;98.45;98690.06;5095010;28;20024;-61
2023/01/17 09:35:43;;;;;;;25.27;21.47;;;;;;;0.79;98.32;98690.44;5105943;28;20487;-61
2023/01/17 09:38:09;;;;;;;29.50;23.17;;;;;;;0.98;99.07;98697.22;5092555;28;20445;-61
2023/01/17 09:40:37;;;;;;;24.63;21.77;;;;;;;1.01;98.53;98691.81;5094097;28;20025;-61
2023/01/17 09:43:14;;;;;;;24.60;21.93;;;;;;;1.12;97.59;98692.88;5108504;28;20041;-61
2023/01/17 09:45:39;;;;;;;23.20;20.73;;;;;;;1.22;97.74;98694.94;5110491;28;20073;-62
2023/01/17 09:48:13;;;;;;;23.23;20.53;;;;;;;1.41;97.70;98694.66;5112341;28;20432;-61
2023/01/17 09:51:02;;;;;;;22.53;19.17;;;;;;;1.59;97.04;98697.03;5089955;28;20490;-61
2023/01/17 09:53:33;;;;;;;21.80;18.63;;;;;;;1.76;95.33;98700.38;5093417;28;20027;-62
2023/01/17 09:56:12;;;;;;;22.80;17.73;;;;;;;1.88;94.77;98701.38;5112123;28;20047;-61
2023/01/17 09:58:48;;;;;;;23.23;19.35;;;;;;;1.87;93.76;98702.34;5112063;28;20023;-61
2023/01/17 10:01:25;;;;;;;21.05;19.05;;;;;;;1.90;94.96;98700.34;5105548;28;20028;-62
2023/01/17 10:03:50;;;;;;;22.92;18.63;;;;;;;2.13;94.62;98708.56;5108236;28;20446;-62
2023/01/17 10:06:41;;;;;;;19.15;17.25;;;;;;;2.44;94.17;98705.69;5112913;28;20106;-61
2023/01/17 10:09:32;;;;;;;19.23;15.82;;;;;;;2.68;91.84;98708.50;5093894;28;20027;-61
2023/01/17 10:12:25;;;;;;;18.65;14.82;;;;;;;2.68;90.73;98713.75;5111016;28;20508;-62
2023/01/17 10:15:28;;;;;;;18.75;15.48;;;;;;;2.85;91.54;98719.66;5094241;28;20491;-62
2023/01/17 10:18:00;;;;;;;19.73;15.90;;;;;;;2.93;88.74;98712.13;5112524;28;20028;-61
2023/01/17 10:20:35;;;;;;;17.40;15.05;;;;;;;3.01;88.92;98719.50;5112383;28;20077;-61
2023/01/17 10:23:31;;;;;;;14.90;13.30;;;;;;;3.33;86.90;98720.81;5098080;28;20020;-61
2023/01/17 10:26:20;;;;;;;16.27;14.00;;;;;;;3.32;87.94;98699.91;5091758;28;20020;-62
2023/01/17 10:28:50;;;;;;;16.98;14.38;;;;;;;3.67;86.94;98715.88;5090660;28;20024;-62
2023/01/17 10:31:25;;;;;;;16.65;14.27;;;;;;;3.75;85.48;98712.72;5091880;28;20016;-61
2023/01/17 10:33:56;;;;;;;16.40;13.77;;;;;;;3.58;84.66;98706.00;5108065;28;20034;-62
2023/01/17 10:36:24;;;;;;;15.35;13.52;;;;;;;3.44;84.99;98698.22;5086666;28;20054;-62
2023/01/17 10:38:55;;;;;;;15.13;13.57;;;;;;;3.52;87.08;98702.00;5111195;28;20480;-61
2023/01/17 10:41:26;;;;;;;18.42;13.95;;;;;;;3.53;84.30;98710.72;5093263;28;20501;-61
2023/01/17 10:44:10;;;;;;;14.85;13.35;;;;;;;3.46;86.37;98714.72;5109111;28;20036;-61
2023/01/17 10:46:56;;;;;;;15.35;13.65;;;;;;;3.65;84.74;98720.41;5111426;28;20205;-61
2023/01/17 10:49:25;;;;;;;17.00;15.20;;;;;;;3.99;83.39;98728.56;5093755;28;20042;-62
2023/01/17 10:52:15;;;;;;;18.23;14.25;;;;;;;4.29;83.04;98734.31;5093977;28;20023;-62
2023/01/17 10:54:43;;;;;;;22.13;15.00;;;;;;;4.37;84.32;98728.47;5109419;28;20042;-61
2023/01/17 10:57:16;;;;;;;17.15;13.45;;;;;;;4.91;81.48;98719.28;5111941;28;20073;-62
2023/01/17 10:59:42;;;;;;;13.55;11.73;;;;;;;5.70;77.94;98715.88;5093895;28;20027;-62
2023/01/17 11:02:20;;;;;;;13.75;12.25;;;;;;;5.85;77.90;98718.31;5111880;28;20394;-62
2023/01/17 11:04:50;;;;;;;14.40;11.18;;;;;;;5.68;76.03;98719.63;5110281;28;20680;-62
2023/01/17 11:07:20;;;;;;;18.20;11.50;;;;;;;5.50;75.09;98727.16;5112165;28;20030;-62
2023/01/17 11:09:50;;;;;;;;;;;;;;;5.88;82.22;98715.41;5111833;28;20478;-62
2023/01/17 11:12:40;;;;;;;18.90;12.18;;;;;;;6.41;77.09;98712.16;5112289;28;19938;-63
2023/01/17 11:15:08;;;;;;;12.30;10.20;;;;;;;7.18;71.95;98714.69;5110001;28;20028;-62
2023/01/17 11:17:40;;;;;;;17.00;10.50;;;;;;;7.61;71.07;98711.88;5111585;28;20055;-62
2023/01/17 11:20:32;;;;;;;14.20;9.75;;;;;;;8.23;70.38;98707.41;5111558;28;20030;-62
2023/01/17 11:23:22;;;;;;;18.35;9.48;;;;;;;8.41;66.06;98707.63;5111657;28;20442;-62
2023/01/17 11:25:52;;;;;;;15.30;9.02;;;;;;;8.96;63.53;98707.97;5109627;28;20031;-62
2023/01/17 11:28:25;;;;;;;14.32;8.50;;;;;;;9.49;59.71;98712.81;5111794;28;20027;-62
2023/01/17 11:30:59;;;;;;;12.23;7.97;;;;;;;9.81;61.85;98711.63;5091949;28;20024;-61
2023/01/17 11:33:47;;;;;;;11.65;7.60;;;;;;;9.47;58.10;98713.94;5106583;28;20416;-60
2023/01/17 11:36:17;;;;;;;9.15;7.55;;;;;;;9.46;58.53;98706.97;5096374;28;20023;-60
2023/01/17 11:38:55;;;;;;;8.38;7.28;;;;;;;9.43;60.92;98710.72;5113446;28;20029;-61
2023/01/17 11:41:22;;;;;;;11.25;7.50;;;;;;;8.94;60.55;98707.31;5114822;28;20023;-60
2023/01/17 11:43:57;;;;;;;12.07;7.93;;;;;;;8.76;60.80;98712.41;5114891;28;20156;-60
2023/01/17 11:46:23;;;;;;;10.98;7.47;;;;;;;8.73;61.13;98706.56;5095781;28;20027;-60
2023/01/17 11:48:50;;;;;;;10.50;7.68;;;;;;;8.96;58.45;98704.50;5114739;28;20028;-60
2023/01/17 11:51:21;;;;;;;10.07;7.18;;;;;;;8.67;57.74;98697.34;5114510;28;20031;-60
2023/01/17 11:53:48;;;;;;;11.35;7.45;;;;;;;8.33;57.74;98689.75;5114397;28;20034;-60
2023/01/17 11:56:35;;;;;;;10.05;6.25;;;;;;;8.19;61.20;98695.41;5114638;28;20169;-60
2023/01/17 11:59:16;;;;;;;13.43;7.68;;;;;;;8.05;60.29;98693.97;5101778;28;20085;-61
2023/01/17 12:02:04;;;;;;;10.40;7.03;;;;;;;8.05;61.19;98680.72;5113301;28;20482;-60
2023/01/17 12:04:37;;;;;;;11.30;7.10;;;;;;;8.29;59.27;98685.69;5113102;28;20036;-61
2023/01/17 12:07:05;;;;;;;9.75;6.65;;;;;;;8.58;57.29;98685.75;5113412;28;20023;-60
2023/01/17 12:09:52;;;;;;;11.57;7.25;;;;;;;9.04;60.33;98683.44;5113414;28;20030;-60
2023/01/17 12:15:46;;;;;;;7.68;5.55;;;;;;;9.80;54.13;98683.41;5114680;28;20038;-60
2023/01/17 12:18:36;;;;;;;7.28;5.03;;;;;;;9.63;52.97;98692.97;5114162;28;20034;-61
2023/01/17 12:21:15;;;;;;;6.55;5.03;;;;;;;9.70;55.36;98685.25;5114443;28;20023;-61
2023/01/17 12:23:40;;;;;;;10.20;6.10;;;;;;;9.86;53.45;98687.31;5095799;28;20885;-61
2023/01/17 12:26:30;;;;;;;7.65;6.00;;;;;;;10.24;54.43;98684.47;5114789;28;20115;-60
2023/01/17 12:29:08;;;;;;;7.97;4.63;;;;;;;10.24;50.32;98689.78;5095464;28;20359;-61
2023/01/17 12:31:42;;;;;;;6.82;4.95;;;;;;;9.87;49.87;98687.16;5114687;28;20039;-61
2023/01/17 12:34:26;;;;;;;5.88;3.97;;;;;;;10.36;52.12;98687.78;5096038;28;20084;-61
2023/01/17 12:37:00;;;;;;;6.65;4.47;;;;;;;10.17;52.24;98682.53;5096053;28;20126;-61
2023/01/17 12:39:36;;;;;;;5.53;4.55;;;;;;;10.07;53.32;98679.09;5091527;28;20089;-61
2023/01/17 12:42:17;;;;;;;8.77;5.25;;;;;;;9.70;53.61;98672.81;5093775;28;20028;-61
2023/01/17 12:44:57;;;;;;;7.93;5.38;;;;;;;9.27;55.04;98681.31;5092038;28;20111;-61
2023/01/17 12:47:24;;;;;;;7.70;5.65;;;;;;;8.84;51.97;98685.25;5092762;28;20035;-61
2023/01/17 12:49:57;;;;;;;5.38;4.47;;;;;;;8.43;50.26;98678.38;5094512;28;20028;-61
2023/01/17 12:52:53;;;;;;;7.18;4.88;;;;;;;8.18;54.52;98675.22;5093979;28;20020;-61
2023/01/17 12:55:38;;;;;;;6.22;4.35;;;;;;;7.85;52.50;98679.84;5093148;28;20514;-61
2023/01/17 12:58:11;;;;;;;7.18;4.90;;;;;;;7.56;52.62;98681.50;5093397;28;20031;-60
2023/01/17 13:00:38;;;;;;;9.45;5.47;;;;;;;7.53;53.56;98679.09;5094653;28;20097;-61
2023/01/17 13:03:11;;;;;;;9.45;5.82;;;;;;;7.20;54.75;98673.06;5093561;28;20356;-60
2023/01/17 13:05:40;;;;;;;7.43;5.03;;;;;;;7.13;54.67;98678.03;5093427;28;20103;-61
2023/01/17 13:08:18;;;;;;;7.45;5.57;;;;;;;7.47;53.61;98673.41;5093458;28;20036;-60